Time;durP1;ratioP1;P1;durP2;ratioP2;P2;SDS_P1;SDS_P2;PMS_P1;PMS_P2;Temp;Humidity;BMP_temperature;BMP_pressure;BME280_temperature;BME280_humidity;BME280_pressure;Samples;Min_cycle;Max_cycle;Signal;HPM_P1;HPM_P2
2023/12/24 00:00:37;;;;;;;15.37;14.17;;;;;;;6.64;88.87;92060.50;5058336;28;20204;-72
2023/12/24 00:03:03;;;;;;;14.77;13.37;;;;;;;6.68;88.79;92068.53;5064223;28;20217;-72
2023/12/24 00:05:28;;;;;;;13.67;12.47;;;;;;;6.32;90.19;92063.50;5061229;28;20242;-73
2023/12/24 00:07:54;;;;;;;15.30;13.27;;;;;;;6.52;89.68;92070.44;5067715;28;20229;-72
2023/12/24 00:10:19;;;;;;;16.23;14.93;;;;;;;6.53;89.76;92071.97;5065871;28;20169;-73
2023/12/24 00:12:44;;;;;;;14.63;13.40;;;;;;;6.50;90.51;92068.13;5060330;28;20236;-72
2023/12/24 00:15:10;;;;;;;14.27;12.73;;;;;;;6.52;89.76;92075.63;5061199;28;20219;-74
2023/12/24 00:17:35;;;;;;;12.57;11.57;;;;;;;7.69;84.18;92071.94;5069233;28;20266;-72
2023/12/24 00:20:01;;;;;;;11.83;10.83;;;;;;;8.74;78.61;92077.84;5052616;28;20229;-72
2023/12/24 00:22:28;;;;;;;15.40;12.37;;;;;;;9.18;76.67;92080.91;5060409;28;20234;-72
2023/12/24 00:24:53;;;;;;;14.77;13.57;;;;;;;9.23;77.39;92080.84;5049010;28;20233;-72
2023/12/24 00:27:19;;;;;;;13.37;12.27;;;;;;;9.16;75.31;92086.41;5056680;28;20236;-73
2023/12/24 00:29:44;;;;;;;13.67;12.50;;;;;;;9.30;75.10;92094.28;5068635;28;20253;-72
2023/12/24 00:32:09;;;;;;;12.73;10.63;;;;;;;9.52;73.48;92102.28;5061520;28;20236;-72
2023/12/24 00:34:35;;;;;;;11.30;10.60;;;;;;;9.54;73.67;92097.56;5049362;28;20197;-72
2023/12/24 00:37:00;;;;;;;14.23;12.83;;;;;;;9.69;71.07;92107.75;5047444;28;20229;-72
2023/12/24 00:39:25;;;;;;;17.10;14.37;;;;;;;9.53;70.69;92099.38;5050198;28;20677;-73
2023/12/24 00:41:51;;;;;;;12.27;11.33;;;;;;;9.58;69.78;92117.56;5045744;28;20220;-74
2023/12/24 00:44:16;;;;;;;11.20;10.30;;;;;;;9.74;66.44;92128.53;5072935;28;20199;-72
2023/12/24 00:46:44;;;;;;;10.83;10.20;;;;;;;9.63;66.65;92103.66;5064656;28;20226;-72
2023/12/24 00:49:09;;;;;;;10.37;9.77;;;;;;;9.68;65.68;92142.69;5040049;28;20179;-72
2023/12/24 00:51:40;;;;;;;9.90;9.50;;;;;;;9.73;66.74;92124.34;5046652;28;20233;-72
2023/12/24 00:54:06;;;;;;;11.30;10.40;;;;;;;9.56;68.32;92137.13;5044139;28;20182;-73
2023/12/24 00:56:31;;;;;;;9.43;9.03;;;;;;;9.58;66.46;92150.66;5050372;28;20197;-73
2023/12/24 00:58:56;;;;;;;9.57;8.87;;;;;;;9.63;65.10;92151.34;5067514;28;20208;-74
2023/12/24 01:01:22;;;;;;;9.53;9.03;;;;;;;9.53;64.67;92172.34;5054740;28;20254;-74
2023/12/24 01:03:47;;;;;;;8.77;8.47;;;;;;;9.55;64.47;92185.09;5055904;28;20201;-75
2023/12/24 01:06:12;;;;;;;9.77;8.97;;;;;;;9.49;64.72;92181.00;5068219;28;20224;-75
2023/12/24 01:08:38;;;;;;;10.10;9.47;;;;;;;9.35;66.24;92175.69;5048510;28;20241;-75
2023/12/24 01:11:03;;;;;;;9.93;9.33;;;;;;;9.33;65.84;92188.25;5048557;28;20178;-73
2023/12/24 01:13:28;;;;;;;11.00;10.20;;;;;;;9.41;66.00;92189.44;5037129;28;20216;-73
2023/12/24 01:15:54;;;;;;;9.77;9.23;;;;;;;9.34;65.99;92181.19;5035388;28;20233;-73
2023/12/24 01:18:19;;;;;;;8.83;8.30;;;;;;;9.49;65.34;92194.03;5041460;28;20930;-73
2023/12/24 01:20:44;;;;;;;10.33;9.83;;;;;;;9.50;65.67;92203.38;5044886;28;20225;-73
2023/12/24 01:23:10;;;;;;;10.27;9.67;;;;;;;9.31;65.74;92207.81;5064983;28;20228;-73
2023/12/24 01:25:35;;;;;;;8.97;8.57;;;;;;;9.18;66.66;92198.84;5075643;28;20231;-73
2023/12/24 01:28:00;;;;;;;10.17;9.60;;;;;;;9.23;64.96;92198.78;5070387;28;20242;-73
2023/12/24 01:30:26;;;;;;;9.77;9.37;;;;;;;9.21;65.79;92206.09;5063873;28;20228;-73
2023/12/24 01:32:51;;;;;;;10.47;9.97;;;;;;;9.23;65.82;92203.25;5074692;28;20236;-73
2023/12/24 01:35:17;;;;;;;10.37;9.70;;;;;;;9.12;66.24;92207.03;5065371;28;20200;-73
2023/12/24 01:37:42;;;;;;;9.43;9.03;;;;;;;9.13;66.85;92203.34;5071890;28;20229;-73
2023/12/24 01:40:08;;;;;;;9.70;9.30;;;;;;;9.15;67.79;92206.47;5067924;28;20173;-74
2023/12/24 01:42:34;;;;;;;10.10;9.60;;;;;;;9.08;67.36;92212.00;5059211;28;20241;-73
2023/12/24 01:44:59;;;;;;;10.33;9.77;;;;;;;9.16;68.83;92214.00;5071508;28;20173;-73
2023/12/24 01:47:25;;;;;;;10.70;10.10;;;;;;;9.08;68.70;92204.19;5071865;28;20229;-72
2023/12/24 01:49:51;;;;;;;10.00;9.40;;;;;;;8.85;69.21;92199.00;5067698;28;20205;-73
2023/12/24 01:52:17;;;;;;;10.17;9.77;;;;;;;8.90;68.40;92204.91;5071835;28;21639;-74
2023/12/24 01:54:46;;;;;;;9.27;8.73;;;;;;;9.02;69.94;92196.72;5073132;28;20188;-73
2023/12/24 01:57:11;;;;;;;9.97;9.47;;;;;;;9.09;67.81;92210.19;5067861;28;20221;-72
2023/12/24 01:59:37;;;;;;;9.87;9.07;;;;;;;8.91;67.91;92208.28;5061302;28;20231;-73
2023/12/24 02:02:03;;;;;;;10.07;9.53;;;;;;;8.94;66.94;92231.16;5060556;28;21270;-73
2023/12/24 02:04:29;;;;;;;9.93;9.47;;;;;;;8.97;67.31;92235.81;5059922;28;20282;-73
2023/12/24 02:06:54;;;;;;;10.73;10.13;;;;;;;8.77;66.83;92225.63;5068186;28;20237;-73
2023/12/24 02:09:20;;;;;;;10.57;10.07;;;;;;;8.89;66.46;92239.03;5072830;28;20185;-73
2023/12/24 02:11:45;;;;;;;9.63;9.23;;;;;;;8.89;67.46;92239.03;5058035;28;20259;-73
2023/12/24 02:14:11;;;;;;;8.97;8.57;;;;;;;8.89;67.05;92246.84;5068803;28;20178;-73
2023/12/24 02:16:39;;;;;;;10.60;10.00;;;;;;;8.80;67.80;92235.47;5072424;28;20193;-73
2023/12/24 02:19:11;;;;;;;9.13;8.47;;;;;;;8.69;68.08;92245.22;5065286;28;20249;-74
2023/12/24 02:21:36;;;;;;;9.23;8.60;;;;;;;8.79;66.37;92244.34;5068336;28;20256;-73
2023/12/24 02:24:01;;;;;;;9.30;8.83;;;;;;;8.65;68.14;92254.66;5051397;28;20198;-72
2023/12/24 02:26:37;;;;;;;8.53;8.20;;;;;;;8.70;66.89;92256.41;5051403;28;20216;-73
2023/12/24 02:29:10;;;;;;;10.33;9.83;;;;;;;8.70;66.66;92235.59;5041611;28;20189;-73
2023/12/24 02:31:38;;;;;;;10.63;10.03;;;;;;;8.68;67.28;92261.13;5047514;28;20187;-73
2023/12/24 02:34:05;;;;;;;9.70;9.20;;;;;;;8.59;66.38;92239.34;5071170;28;20189;-73
2023/12/24 02:36:33;;;;;;;11.67;10.97;;;;;;;8.62;65.80;92249.22;5070338;28;20189;-72
2023/12/24 02:38:59;;;;;;;9.67;9.13;;;;;;;8.74;65.10;92273.03;5068188;28;20174;-73
2023/12/24 02:41:24;;;;;;;8.43;8.13;;;;;;;8.67;65.40;92256.97;5069387;28;20232;-73
2023/12/24 02:43:49;;;;;;;10.17;9.50;;;;;;;8.68;65.15;92259.31;5063091;28;20197;-72
2023/12/24 02:46:15;;;;;;;10.83;10.33;;;;;;;8.65;65.16;92259.06;5061912;28;20221;-73
2023/12/24 02:48:41;;;;;;;9.13;8.63;;;;;;;8.54;65.57;92261.00;5049600;28;20222;-73
2023/12/24 02:51:06;;;;;;;8.90;8.57;;;;;;;8.58;65.57;92274.22;5050764;28;20202;-73
2023/12/24 02:53:31;;;;;;;9.40;9.00;;;;;;;8.67;65.49;92270.75;5050966;28;20222;-73
2023/12/24 02:55:57;;;;;;;8.73;8.33;;;;;;;8.65;66.08;92272.06;5051089;28;20238;-73
2023/12/24 02:58:22;;;;;;;9.77;9.37;;;;;;;8.59;68.07;92271.34;5051270;28;20246;-74
2023/12/24 03:00:47;;;;;;;9.97;9.47;;;;;;;8.52;66.12;92277.91;5041270;28;20203;-72
2023/12/24 03:03:13;;;;;;;9.33;8.93;;;;;;;8.50;66.05;92283.38;5046037;28;20378;-73
2023/12/24 03:05:38;;;;;;;8.87;8.47;;;;;;;8.46;66.18;92281.59;5051196;28;20218;-73
2023/12/24 03:08:04;;;;;;;9.77;9.37;;;;;;;8.55;65.97;92272.94;5044128;28;20218;-73
2023/12/24 03:10:29;;;;;;;9.07;8.57;;;;;;;8.46;65.72;92281.59;5050611;28;20194;-73
2023/12/24 03:12:54;;;;;;;9.50;9.20;;;;;;;8.51;66.23;92284.16;5056885;28;20755;-72
2023/12/24 03:15:20;;;;;;;9.10;8.60;;;;;;;8.47;65.97;92288.38;5064557;28;20186;-72
2023/12/24 03:17:45;;;;;;;10.00;9.57;;;;;;;8.46;66.09;92292.78;5067507;28;20224;-73
2023/12/24 03:20:10;;;;;;;9.27;8.97;;;;;;;8.40;66.35;92291.28;5060216;28;20217;-73
2023/12/24 03:22:36;;;;;;;9.83;9.43;;;;;;;8.30;66.45;92278.34;5061052;28;20411;-73
2023/12/24 03:25:01;;;;;;;9.57;9.17;;;;;;;8.36;66.19;92290.25;5066581;28;20182;-73
2023/12/24 03:27:26;;;;;;;9.03;8.63;;;;;;;8.37;67.34;92293.66;5059655;28;20316;-73
2023/12/24 03:29:52;;;;;;;9.47;8.97;;;;;;;8.38;68.12;92301.19;5058474;28;20182;-73
2023/12/24 03:32:18;;;;;;;10.27;9.57;;;;;;;8.47;67.38;92302.13;5060497;28;20233;-73
2023/12/24 03:34:43;;;;;;;8.80;8.50;;;;;;;8.35;68.19;92311.34;5065645;28;20182;-74
2023/12/24 03:37:08;;;;;;;10.10;9.60;;;;;;;8.40;68.73;92308.72;5069134;28;20223;-73
2023/12/24 03:39:34;;;;;;;10.27;9.77;;;;;;;8.34;68.93;92315.00;5065239;28;20207;-73
2023/12/24 03:41:59;;;;;;;10.40;9.87;;;;;;;8.35;68.70;92316.53;5054733;28;20257;-73
2023/12/24 03:44:24;;;;;;;10.33;9.53;;;;;;;8.36;69.42;92334.47;5046950;28;20194;-73
2023/12/24 03:46:49;;;;;;;9.83;9.10;;;;;;;8.48;68.59;92326.34;5040915;28;20276;-73
2023/12/24 03:49:15;;;;;;;10.50;9.90;;;;;;;8.60;67.94;92339.75;5050281;28;20235;-73
2023/12/24 03:51:40;;;;;;;10.77;10.17;;;;;;;8.58;67.16;92327.03;5050293;28;20229;-74
2023/12/24 03:54:05;;;;;;;9.87;9.43;;;;;;;8.88;66.95;92346.81;5048798;28;20194;-73
2023/12/24 03:56:31;;;;;;;9.37;8.73;;;;;;;8.87;66.22;92348.63;5043401;28;20201;-73
2023/12/24 03:58:56;;;;;;;9.83;9.30;;;;;;;8.75;65.36;92335.22;5043030;28;20247;-73
2023/12/24 04:01:28;;;;;;;10.10;9.50;;;;;;;8.89;65.96;92343.94;5049829;28;20197;-73
2023/12/24 04:03:53;;;;;;;9.17;8.73;;;;;;;8.74;66.85;92351.88;5064427;28;20181;-74
2023/12/24 04:06:19;;;;;;;10.13;9.17;;;;;;;8.71;66.68;92351.66;5069134;28;20244;-73
2023/12/24 04:08:44;;;;;;;10.17;9.37;;;;;;;8.74;67.07;92369.31;5060950;28;20225;-73
2023/12/24 04:11:14;;;;;;;9.83;9.23;;;;;;;8.72;67.62;92382.59;5064170;28;20185;-73
2023/12/24 04:13:40;;;;;;;9.27;8.73;;;;;;;8.76;67.62;92372.44;5044464;28;20720;-73
2023/12/24 04:16:06;;;;;;;10.33;9.83;;;;;;;8.79;68.45;92372.66;5041749;28;20190;-73
2023/12/24 04:18:31;;;;;;;10.40;9.63;;;;;;;8.49;68.65;92372.09;5041510;28;20228;-75
2023/12/24 04:20:56;;;;;;;10.50;9.90;;;;;;;8.47;68.66;92393.19;5044259;28;20226;-74
2023/12/24 04:23:22;;;;;;;9.57;9.03;;;;;;;8.31;69.40;92389.16;5043287;28;20242;-75
2023/12/24 04:25:47;;;;;;;10.03;9.53;;;;;;;8.40;69.90;92386.72;5036791;28;20211;-76
2023/12/24 04:28:13;;;;;;;9.77;9.20;;;;;;;8.30;69.82;92376.38;5032071;28;20218;-75
2023/12/24 04:30:38;;;;;;;9.67;9.17;;;;;;;8.31;70.90;92393.56;5041116;28;20273;-75
2023/12/24 04:33:03;;;;;;;10.30;9.70;;;;;;;8.33;70.31;92392.22;5042266;28;20210;-74
2023/12/24 04:35:29;;;;;;;10.00;9.50;;;;;;;8.46;70.18;92406.47;5049956;28;20259;-74
2023/12/24 04:37:55;;;;;;;11.07;10.57;;;;;;;8.43;69.24;92401.81;5056810;28;20240;-74
2023/12/24 04:40:20;;;;;;;9.30;8.83;;;;;;;8.45;69.63;92399.72;5066281;28;20189;-75
2023/12/24 04:42:45;;;;;;;9.57;9.07;;;;;;;8.31;70.09;92390.97;5066725;28;20221;-75
2023/12/24 04:45:11;;;;;;;10.30;9.80;;;;;;;8.48;71.34;92393.97;5067754;28;20197;-75
2023/12/24 04:47:37;;;;;;;9.67;9.37;;;;;;;8.49;67.69;92392.91;5067493;28;20276;-74
2023/12/24 04:50:03;;;;;;;8.87;8.57;;;;;;;8.41;66.87;92368.25;5068178;28;21050;-73
2023/12/24 04:52:29;;;;;;;9.90;9.50;;;;;;;8.63;66.78;92397.25;5066915;28;20323;-74
2023/12/24 04:54:54;;;;;;;9.17;8.87;;;;;;;8.70;67.14;92394.34;5067995;28;20249;-74
2023/12/24 04:57:19;;;;;;;9.43;9.03;;;;;;;8.66;66.59;92414.13;5063980;28;20233;-73
2023/12/24 04:59:45;;;;;;;8.87;8.57;;;;;;;8.73;66.85;92401.59;5073313;28;20678;-74
2023/12/24 05:02:10;;;;;;;9.23;8.83;;;;;;;8.64;67.40;92387.63;5071551;28;20233;-74
2023/12/24 05:04:35;;;;;;;8.47;7.97;;;;;;;8.61;66.32;92408.94;5073791;28;20201;-74
2023/12/24 05:07:01;;;;;;;9.37;8.97;;;;;;;8.81;66.98;92419.25;5072394;28;20248;-74
2023/12/24 05:09:27;;;;;;;7.77;7.57;;;;;;;8.88;68.21;92396.25;5073750;28;20282;-74
2023/12/24 05:11:52;;;;;;;9.03;8.73;;;;;;;9.04;66.34;92434.16;5068739;28;20233;-73
2023/12/24 05:14:17;;;;;;;8.40;7.97;;;;;;;8.88;65.24;92441.31;5071562;28;20193;-74
2023/12/24 05:16:42;;;;;;;8.77;8.47;;;;;;;8.84;67.76;92442.13;5071417;28;20232;-74
2023/12/24 05:19:09;;;;;;;10.40;10.00;;;;;;;8.73;66.23;92443.25;5072740;28;20189;-74
2023/12/24 05:21:34;;;;;;;8.67;8.30;;;;;;;8.70;66.36;92472.41;5072179;28;20239;-74
2023/12/24 05:24:00;;;;;;;8.87;8.53;;;;;;;8.71;66.87;92473.94;5072644;28;20197;-74
2023/12/24 05:26:25;;;;;;;9.53;9.17;;;;;;;8.78;67.31;92474.44;5071329;28;20216;-75
2023/12/24 05:28:54;;;;;;;9.13;8.83;;;;;;;8.77;67.17;92460.63;5071021;28;20269;-74
2023/12/24 05:31:19;;;;;;;9.03;8.73;;;;;;;8.72;68.41;92472.91;5067885;28;20185;-74
2023/12/24 05:33:44;;;;;;;8.93;8.63;;;;;;;8.74;67.29;92461.19;5043510;28;20205;-74
2023/12/24 05:36:13;;;;;;;8.80;8.40;;;;;;;8.57;67.37;92439.97;5051751;28;20246;-75
2023/12/24 05:38:39;;;;;;;9.13;8.73;;;;;;;8.58;67.60;92438.13;5043368;28;20232;-75
2023/12/24 05:41:09;;;;;;;9.20;8.80;;;;;;;8.49;67.96;92427.50;5037237;28;20250;-74
2023/12/24 05:43:34;;;;;;;9.47;9.17;;;;;;;8.49;68.20;92442.34;5042167;28;20218;-75
2023/12/24 05:45:59;;;;;;;9.23;8.83;;;;;;;8.61;71.85;92459.19;5045544;28;20226;-74
2023/12/24 05:48:25;;;;;;;9.13;8.83;;;;;;;8.47;68.79;92457.47;5060596;28;20228;-75
2023/12/24 05:50:50;;;;;;;9.53;9.03;;;;;;;8.46;68.67;92453.28;5060671;28;20969;-74
2023/12/24 05:53:15;;;;;;;9.40;8.80;;;;;;;8.40;68.81;92449.16;5049124;28;20230;-75
2023/12/24 05:55:41;;;;;;;9.33;8.93;;;;;;;8.32;69.25;92434.91;5051149;28;20233;-74
2023/12/24 05:58:06;;;;;;;9.90;9.50;;;;;;;8.39;69.57;92432.00;5047979;28;20269;-73
2023/12/24 06:00:32;;;;;;;9.97;9.47;;;;;;;8.27;69.34;92436.75;5050374;28;20182;-75
2023/12/24 06:02:57;;;;;;;8.73;8.43;;;;;;;8.44;69.52;92437.16;5064802;28;20233;-83
2023/12/24 06:05:23;;;;;;;9.50;9.10;;;;;;;8.85;65.79;92434.03;5068689;28;20169;-78
2023/12/24 06:07:48;;;;;;;9.37;9.07;;;;;;;9.20;68.04;92445.97;5070149;28;20247;-75
2023/12/24 06:10:14;;;;;;;8.97;8.67;;;;;;;8.82;66.44;92457.22;5069234;28;20201;-75
2023/12/24 06:12:40;;;;;;;8.73;8.43;;;;;;;8.86;66.13;92450.41;5060539;28;20232;-75
2023/12/24 06:15:06;;;;;;;8.77;8.47;;;;;;;8.82;65.54;92447.59;5050676;28;20187;-76
2023/12/24 06:17:31;;;;;;;9.13;8.83;;;;;;;8.86;66.60;92438.19;5059415;28;20229;-76
2023/12/24 06:19:57;;;;;;;9.40;9.10;;;;;;;8.79;67.66;92453.34;5066268;28;20253;-77
2023/12/24 06:22:22;;;;;;;9.47;9.07;;;;;;;8.83;65.44;92469.19;5057849;28;20961;-76
2023/12/24 06:24:47;;;;;;;19.37;15.57;;;;;;;8.91;65.20;92450.38;5044990;28;20186;-75
2023/12/24 06:27:13;;;;;;;36.67;26.17;;;;;;;8.92;65.58;92462.38;5039338;28;20696;-76
2023/12/24 06:29:38;;;;;;;11.37;10.57;;;;;;;8.95;64.79;92473.00;5044039;28;20190;-76
2023/12/24 06:32:04;;;;;;;12.47;11.67;;;;;;;9.03;65.47;92464.63;5045658;28;20226;-77
2023/12/24 06:34:30;;;;;;;13.17;12.37;;;;;;;8.91;65.29;92477.22;5047472;28;20198;-76
2023/12/24 06:36:55;;;;;;;12.07;11.40;;;;;;;8.99;64.42;92479.22;5054616;28;20228;-76
2023/12/24 06:39:21;;;;;;;10.27;9.87;;;;;;;9.05;64.24;92478.16;5058808;28;20253;-75
2023/12/24 06:41:47;;;;;;;8.70;8.40;;;;;;;9.14;63.91;92455.69;5060407;28;20240;-76
2023/12/24 06:44:13;;;;;;;9.03;8.63;;;;;;;9.21;65.14;92476.19;5069328;28;20205;-75
2023/12/24 06:46:38;;;;;;;9.37;9.07;;;;;;;9.07;64.93;92477.88;5068361;28;20236;-76
2023/12/24 06:49:03;;;;;;;9.43;9.03;;;;;;;9.02;64.35;92490.91;5067832;28;20177;-75
2023/12/24 06:51:29;;;;;;;9.00;8.70;;;;;;;9.17;63.88;92503.81;5066699;28;20198;-75
2023/12/24 06:53:54;;;;;;;9.77;9.27;;;;;;;9.09;63.61;92504.44;5068593;28;21082;-76
2023/12/24 06:56:19;;;;;;;9.37;9.07;;;;;;;9.22;64.08;92519.41;5076216;28;20256;-75
2023/12/24 06:58:44;;;;;;;9.63;9.23;;;;;;;9.14;63.84;92536.41;5072216;28;20190;-76
2023/12/24 07:01:10;;;;;;;12.50;11.70;;;;;;;9.28;63.38;92533.94;5070845;28;20192;-77
2023/12/24 07:03:35;;;;;;;11.20;10.60;;;;;;;9.48;63.27;92539.78;5070063;28;20235;-76
2023/12/24 07:06:01;;;;;;;9.70;9.27;;;;;;;9.33;63.07;92537.31;5067935;28;20268;-77
2023/12/24 07:08:26;;;;;;;9.30;8.93;;;;;;;9.30;62.54;92529.25;5047786;28;20297;-74
2023/12/24 07:10:51;;;;;;;8.73;8.43;;;;;;;9.38;61.95;92549.53;5048800;28;20208;-74
2023/12/24 07:13:17;;;;;;;10.43;9.97;;;;;;;9.44;62.11;92548.44;5047451;28;20219;-80
2023/12/24 07:15:43;;;;;;;9.40;9.00;;;;;;;9.55;62.06;92553.31;5049360;28;20206;-80
2023/12/24 07:18:09;;;;;;;10.60;10.17;;;;;;;9.63;63.40;92546.72;5048498;28;20236;-80
2023/12/24 07:20:34;;;;;;;12.13;11.53;;;;;;;9.48;61.38;92557.25;5046232;28;20291;-79
2023/12/24 07:23:00;;;;;;;10.43;10.03;;;;;;;9.51;61.33;92559.31;5068435;28;20221;-78
2023/12/24 07:25:25;;;;;;;9.00;8.67;;;;;;;9.75;61.05;92552.34;5068936;28;20186;-79
2023/12/24 07:27:51;;;;;;;11.03;10.53;;;;;;;9.68;60.07;92554.50;5055799;28;20217;-79
2023/12/24 07:30:16;;;;;;;10.10;9.70;;;;;;;9.81;60.17;92533.00;5049870;28;20226;-79
2023/12/24 07:32:45;;;;;;;10.37;9.90;;;;;;;9.56;60.42;92557.47;5048863;28;20263;-80
2023/12/24 07:35:11;;;;;;;10.30;9.60;;;;;;;9.60;60.26;92568.88;5049580;28;20190;-77
2023/12/24 07:37:38;;;;;;;12.17;11.53;;;;;;;9.77;60.92;92558.81;5048239;28;20237;-77
2023/12/24 07:40:08;;;;;;;10.20;9.83;;;;;;;9.90;60.98;92577.50;5045622;28;20213;-77
2023/12/24 07:42:34;;;;;;;8.63;8.33;;;;;;;9.76;62.11;92580.75;5046433;28;20234;-76
2023/12/24 07:44:59;;;;;;;9.40;9.00;;;;;;;9.83;59.97;92583.03;5037998;28;20225;-78
2023/12/24 07:47:24;;;;;;;9.40;8.87;;;;;;;9.91;59.41;92584.28;5048975;28;20236;-77
2023/12/24 07:49:50;;;;;;;10.83;10.23;;;;;;;9.79;59.62;92571.59;5049905;28;20213;-77
2023/12/24 07:52:15;;;;;;;9.77;9.37;;;;;;;9.88;62.69;92569.97;5054883;28;20217;-76
2023/12/24 07:54:40;;;;;;;10.57;10.00;;;;;;;10.09;59.20;92570.56;5066223;28;20261;-76
2023/12/24 07:57:06;;;;;;;9.30;8.80;;;;;;;10.12;58.68;92565.56;5060895;28;20744;-78
2023/12/24 07:59:31;;;;;;;9.07;8.67;;;;;;;9.94;58.73;92552.44;5049785;28;20189;-77
2023/12/24 08:01:56;;;;;;;10.43;9.87;;;;;;;10.02;59.62;92576.09;5038355;28;20222;-78
2023/12/24 08:04:21;;;;;;;10.13;9.70;;;;;;;10.11;60.03;92584.09;5048201;28;20246;-77
2023/12/24 08:06:47;;;;;;;9.73;9.33;;;;;;;10.11;58.57;92584.91;5045142;28;20226;-78
2023/12/24 08:09:12;;;;;;;9.97;9.57;;;;;;;10.33;58.78;92577.38;5047669;28;20257;-79
2023/12/24 08:11:38;;;;;;;9.20;8.80;;;;;;;10.29;58.24;92570.38;5037729;28;20198;-78
2023/12/24 08:14:04;;;;;;;9.20;8.80;;;;;;;10.44;57.08;92571.00;5047384;28;20190;-78
2023/12/24 08:16:32;;;;;;;9.00;8.70;;;;;;;10.51;57.07;92560.19;5042856;28;20205;-76
2023/12/24 08:18:58;;;;;;;9.27;8.77;;;;;;;10.80;56.40;92540.78;5047303;28;20753;-75
2023/12/24 08:21:23;;;;;;;9.17;8.77;;;;;;;10.76;56.46;92528.56;5044376;28;20329;-75
2023/12/24 08:23:48;;;;;;;8.77;8.47;;;;;;;11.08;55.44;92539.88;5038448;28;20401;-76
2023/12/24 08:26:14;;;;;;;10.67;10.17;;;;;;;11.02;55.57;92542.81;5048697;28;20257;-76
2023/12/24 08:28:39;;;;;;;9.97;9.47;;;;;;;11.10;54.27;92542.19;5043394;28;20299;-77
2023/12/24 08:31:04;;;;;;;11.07;10.57;;;;;;;11.18;53.78;92531.91;5039171;28;20189;-75
2023/12/24 08:33:30;;;;;;;9.93;9.53;;;;;;;11.04;54.61;92519.81;5063418;28;20233;-75
2023/12/24 08:35:55;;;;;;;9.50;9.10;;;;;;;11.12;52.82;92522.59;5064473;28;20225;-75
2023/12/24 08:38:20;;;;;;;10.67;10.27;;;;;;;11.24;52.63;92527.38;5057463;28;20218;-76
2023/12/24 08:40:46;;;;;;;10.63;10.20;;;;;;;11.18;53.55;92542.34;5060179;28;20194;-79
2023/12/24 08:43:11;;;;;;;13.90;12.90;;;;;;;11.11;52.62;92535.94;5046139;28;20247;-74
2023/12/24 08:45:36;;;;;;;11.27;10.73;;;;;;;11.31;53.24;92554.69;5040657;28;20212;-74
2023/12/24 08:48:02;;;;;;;11.70;10.87;;;;;;;11.47;53.20;92538.78;5057598;28;20237;-75
2023/12/24 08:50:27;;;;;;;10.60;10.20;;;;;;;11.57;51.35;92543.84;5068052;28;20198;-76
2023/12/24 08:52:53;;;;;;;9.47;8.97;;;;;;;11.77;51.23;92551.41;5064796;28;20310;-77
2023/12/24 08:55:18;;;;;;;9.40;9.00;;;;;;;11.58;50.23;92546.19;5063070;28;20190;-75
2023/12/24 08:57:43;;;;;;;9.37;8.97;;;;;;;11.54;49.28;92557.50;5055293;28;20229;-75
2023/12/24 09:00:11;;;;;;;9.63;9.23;;;;;;;11.72;50.13;92560.09;5048242;28;20199;-74
2023/12/24 09:02:39;;;;;;;9.50;9.10;;;;;;;11.66;50.08;92576.94;5047028;28;20218;-74
2023/12/24 09:05:07;;;;;;;10.37;9.93;;;;;;;12.11;50.70;92555.25;5043304;28;21708;-74
2023/12/24 09:07:33;;;;;;;12.00;11.23;;;;;;;11.90;56.10;92563.75;5047093;28;20237;-72
2023/12/24 09:09:58;;;;;;;13.90;12.90;;;;;;;11.78;57.13;92556.34;5045777;28;20183;-70
2023/12/24 09:12:24;;;;;;;13.70;12.80;;;;;;;11.59;57.44;92549.59;5046687;28;20252;-71
2023/12/24 09:14:49;;;;;;;13.07;12.00;;;;;;;11.46;57.97;92550.28;5047605;28;20211;-75
2023/12/24 09:17:14;;;;;;;14.17;13.13;;;;;;;11.49;58.09;92544.53;5047688;28;20230;-77
2023/12/24 09:19:40;;;;;;;12.83;11.83;;;;;;;11.47;59.43;92544.03;5045223;28;20245;-74
2023/12/24 09:22:05;;;;;;;13.73;12.73;;;;;;;11.48;59.31;92554.19;5043113;28;20237;-78
2023/12/24 09:24:30;;;;;;;12.67;11.87;;;;;;;11.53;58.94;92532.41;5048125;28;20220;-76
2023/12/24 09:26:56;;;;;;;13.10;12.30;;;;;;;11.52;58.05;92541.34;5047552;28;20248;-76
2023/12/24 09:29:22;;;;;;;14.73;13.37;;;;;;;11.10;60.72;92534.38;5048670;28;20191;-76
2023/12/24 09:31:48;;;;;;;13.30;12.20;;;;;;;11.64;58.05;92554.75;5041996;28;20334;-76
2023/12/24 09:34:13;;;;;;;13.23;12.13;;;;;;;11.32;58.95;92543.19;5040641;28;20249;-77
2023/12/24 09:36:39;;;;;;;12.20;11.40;;;;;;;11.22;58.90;92538.09;5045858;28;20246;-76
2023/12/24 09:39:04;;;;;;;13.07;12.27;;;;;;;11.34;59.60;92546.31;5046846;28;20253;-79
2023/12/24 09:41:30;;;;;;;13.63;12.50;;;;;;;11.30;59.01;92547.13;5046369;28;20201;-78
2023/12/24 09:43:56;;;;;;;10.10;9.63;;;;;;;11.71;55.48;92549.94;5046896;28;20210;-78
2023/12/24 09:46:21;;;;;;;11.53;10.90;;;;;;;12.02;55.35;92537.91;5049586;28;20250;-77
2023/12/24 09:48:46;;;;;;;11.23;10.43;;;;;;;12.05;53.58;92535.50;5050985;28;20195;-78
2023/12/24 09:51:12;;;;;;;11.40;10.70;;;;;;;11.91;53.26;92502.50;5051970;28;20187;-76
2023/12/24 09:53:43;;;;;;;10.53;9.70;;;;;;;12.11;53.32;92523.09;5070093;28;20782;-77
2023/12/24 09:56:09;;;;;;;10.37;9.40;;;;;;;12.15;53.41;92524.84;5064599;28;20216;-76
2023/12/24 09:58:34;;;;;;;10.33;9.73;;;;;;;12.34;52.07;92522.16;5067159;28;20235;-77
2023/12/24 10:00:59;;;;;;;9.90;9.17;;;;;;;12.54;53.28;92506.03;5080380;28;20237;-77
2023/12/24 10:03:25;;;;;;;10.27;9.50;;;;;;;12.48;53.06;92505.34;5070778;28;20222;-79
2023/12/24 10:06:07;;;;;;;10.90;10.20;;;;;;;12.61;52.56;92522.13;5070728;28;20209;-77
2023/12/24 10:08:36;;;;;;;9.87;9.30;;;;;;;12.80;52.25;92505.22;5059829;28;20227;-77
2023/12/24 10:11:20;;;;;;;10.63;9.93;;;;;;;12.43;52.38;92481.91;5063911;28;20737;-76
2023/12/24 10:13:47;;;;;;;9.90;9.37;;;;;;;12.98;51.65;92475.47;5067968;28;20204;-74
2023/12/24 10:16:12;;;;;;;10.43;9.90;;;;;;;12.90;51.81;92480.66;5060121;28;20196;-75
2023/12/24 10:18:47;;;;;;;10.43;9.83;;;;;;;12.67;51.94;92479.81;5066762;28;20222;-74
2023/12/24 10:21:12;;;;;;;10.70;10.07;;;;;;;12.63;51.29;92449.28;5063247;28;20548;-72
2023/12/24 10:23:38;;;;;;;10.73;10.07;;;;;;;12.98;51.75;92451.91;5071076;28;20223;-75
2023/12/24 10:26:06;;;;;;;10.83;10.23;;;;;;;13.23;48.73;92449.81;5070972;28;20219;-77
2023/12/24 10:28:32;;;;;;;10.20;9.63;;;;;;;13.08;49.93;92448.31;5071380;28;20232;-76
2023/12/24 10:31:08;;;;;;;9.60;9.00;;;;;;;13.28;49.94;92439.97;5066009;28;20189;-74
2023/12/24 10:33:38;;;;;;;10.40;9.70;;;;;;;13.73;50.84;92427.56;5067910;28;20251;-78
2023/12/24 10:36:04;;;;;;;9.03;8.53;;;;;;;13.64;47.96;92438.03;5072567;28;20185;-77
2023/12/24 10:38:30;;;;;;;10.20;9.57;;;;;;;14.28;47.58;92434.78;5075350;28;20229;-71
2023/12/24 10:40:56;;;;;;;10.00;9.07;;;;;;;13.96;48.24;92429.09;5063818;28;20201;-75
2023/12/24 10:43:21;;;;;;;9.83;9.30;;;;;;;13.78;48.95;92424.81;5052812;28;20288;-73
2023/12/24 10:45:46;;;;;;;10.03;9.30;;;;;;;13.82;49.13;92426.53;5041094;28;20202;-76
2023/12/24 10:48:12;;;;;;;9.23;8.70;;;;;;;13.48;49.11;92436.84;5063541;28;20239;-73
2023/12/24 10:50:38;;;;;;;10.13;9.63;;;;;;;13.56;51.60;92430.88;5068682;28;20193;-73
2023/12/24 10:53:03;;;;;;;9.83;9.20;;;;;;;13.46;48.41;92443.47;5075158;28;20215;-76
2023/12/24 10:55:34;;;;;;;10.13;9.47;;;;;;;13.70;46.06;92444.69;5062155;28;20190;-74
2023/12/24 10:58:37;;;;;;;10.50;9.67;;;;;;;14.06;47.44;92445.34;5049319;28;20238;-73
2023/12/24 11:01:08;;;;;;;9.50;8.90;;;;;;;14.62;45.55;92435.94;5049172;28;20276;-74
2023/12/24 11:03:49;;;;;;;9.90;9.00;;;;;;;14.25;47.98;92445.91;5056720;28;20300;-77
2023/12/24 11:06:36;;;;;;;9.73;9.20;;;;;;;14.24;49.49;92444.34;5070047;28;20231;-74
2023/12/24 11:09:05;;;;;;;9.90;9.40;;;;;;;14.47;47.84;92427.41;5069355;28;20252;-74
2023/12/24 11:11:53;;;;;;;8.43;7.93;;;;;;;14.35;47.01;92426.44;5066508;28;20205;-75
2023/12/24 11:14:50;;;;;;;9.00;8.30;;;;;;;14.44;46.74;92433.28;5048915;28;20210;-76
2023/12/24 11:17:36;;;;;;;10.40;9.60;;;;;;;14.22;50.39;92433.34;5022835;28;20317;-75
2023/12/24 11:20:23;;;;;;;11.07;10.30;;;;;;;14.69;50.64;92441.53;5043321;28;20246;-75
2023/12/24 11:23:18;;;;;;;10.67;10.07;;;;;;;14.37;49.90;92440.84;5046424;28;20229;-75
2023/12/24 11:25:46;;;;;;;11.13;10.47;;;;;;;14.41;50.84;92439.13;5035716;28;20285;-77
2023/12/24 11:28:33;;;;;;;11.90;11.30;;;;;;;13.70;52.60;92439.44;5057729;28;20926;-75